sensor_id;sensor_type;location;lat;lon;timestamp;P1;durP1;ratioP1;P2;durP2;ratioP2
12869;SDS011;6503;48.572;13.460;2023-11-18T00:01:46;78.65;;;18.25;;
12869;SDS011;6503;48.572;13.460;2023-11-18T00:04:13;104.25;;;18.63;;
12869;SDS011;6503;48.572;13.460;2023-11-18T00:06:41;69.22;;;17.15;;
12869;SDS011;6503;48.572;13.460;2023-11-18T00:09:10;36.45;;;14.80;;
12869;SDS011;6503;48.572;13.460;2023-11-18T00:11:39;20.35;;;12.57;;
12869;SDS011;6503;48.572;13.460;2023-11-18T00:14:07;23.42;;;13.05;;
12869;SDS011;6503;48.572;13.460;2023-11-18T00:16:37;21.35;;;12.55;;
12869;SDS011;6503;48.572;13.460;2023-11-18T00:19:04;18.13;;;13.05;;
12869;SDS011;6503;48.572;13.460;2023-11-18T00:24:29;34.05;;;13.60;;
12869;SDS011;6503;48.572;13.460;2023-11-18T00:27:03;23.48;;;14.15;;
12869;SDS011;6503;48.572;13.460;2023-11-18T00:29:32;27.58;;;14.40;;
12869;SDS011;6503;48.572;13.460;2023-11-18T00:38:01;35.42;;;16.73;;
12869;SDS011;6503;48.572;13.460;2023-11-18T00:40:35;45.53;;;18.00;;
12869;SDS011;6503;48.572;13.460;2023-11-18T00:43:11;36.85;;;18.05;;
12869;SDS011;6503;48.572;13.460;2023-11-18T00:45:53;30.38;;;18.13;;
12869;SDS011;6503;48.572;13.460;2023-11-18T00:48:34;59.35;;;20.58;;
12869;SDS011;6503;48.572;13.460;2023-11-18T00:51:02;55.78;;;20.92;;
12869;SDS011;6503;48.572;13.460;2023-11-18T00:53:31;29.00;;;17.55;;
12869;SDS011;6503;48.572;13.460;2023-11-18T00:55:58;24.60;;;15.70;;
12869;SDS011;6503;48.572;13.460;2023-11-18T00:58:39;25.05;;;15.60;;
12869;SDS011;6503;48.572;13.460;2023-11-18T01:01:21;30.50;;;14.75;;
12869;SDS011;6503;48.572;13.460;2023-11-18T01:03:57;22.25;;;14.10;;
12869;SDS011;6503;48.572;13.460;2023-11-18T01:06:38;20.17;;;13.68;;
12869;SDS011;6503;48.572;13.460;2023-11-18T01:09:15;20.42;;;13.48;;
12869;SDS011;6503;48.572;13.460;2023-11-18T01:11:59;19.85;;;13.20;;
12869;SDS011;6503;48.572;13.460;2023-11-18T01:14:44;27.58;;;14.68;;
12869;SDS011;6503;48.572;13.460;2023-11-18T01:17:37;20.58;;;14.48;;
12869;SDS011;6503;48.572;13.460;2023-11-18T01:20:17;21.30;;;14.75;;
12869;SDS011;6503;48.572;13.460;2023-11-18T01:22:53;21.80;;;14.85;;
12869;SDS011;6503;48.572;13.460;2023-11-18T01:28:56;24.80;;;16.75;;
12869;SDS011;6503;48.572;13.460;2023-11-18T01:31:30;27.73;;;16.88;;
12869;SDS011;6503;48.572;13.460;2023-11-18T01:34:26;24.40;;;16.58;;
12869;SDS011;6503;48.572;13.460;2023-11-18T01:37:08;24.63;;;16.35;;
12869;SDS011;6503;48.572;13.460;2023-11-18T01:39:49;21.02;;;15.70;;
12869;SDS011;6503;48.572;13.460;2023-11-18T01:42:24;21.05;;;15.70;;
12869;SDS011;6503;48.572;13.460;2023-11-18T01:45:07;20.73;;;15.02;;
12869;SDS011;6503;48.572;13.460;2023-11-18T01:47:57;20.52;;;15.50;;
12869;SDS011;6503;48.572;13.460;2023-11-18T01:50:50;18.98;;;14.57;;
12869;SDS011;6503;48.572;13.460;2023-11-18T01:56:09;19.45;;;14.48;;
12869;SDS011;6503;48.572;13.460;2023-11-18T01:58:36;21.45;;;15.73;;
12869;SDS011;6503;48.572;13.460;2023-11-18T02:01:07;27.50;;;17.05;;
12869;SDS011;6503;48.572;13.460;2023-11-18T02:03:35;24.67;;;17.45;;
12869;SDS011;6503;48.572;13.460;2023-11-18T02:06:03;21.60;;;15.25;;
12869;SDS011;6503;48.572;13.460;2023-11-18T02:08:41;19.73;;;13.88;;
12869;SDS011;6503;48.572;13.460;2023-11-18T02:11:24;19.58;;;14.02;;
12869;SDS011;6503;48.572;13.460;2023-11-18T02:14:32;14.85;;;12.18;;
12869;SDS011;6503;48.572;13.460;2023-11-18T02:22:56;13.68;;;11.23;;
12869;SDS011;6503;48.572;13.460;2023-11-18T02:31:43;14.60;;;10.73;;
12869;SDS011;6503;48.572;13.460;2023-11-18T02:34:16;15.73;;;12.02;;
12869;SDS011;6503;48.572;13.460;2023-11-18T02:36:56;16.48;;;11.88;;
12869;SDS011;6503;48.572;13.460;2023-11-18T02:39:45;14.98;;;11.27;;
12869;SDS011;6503;48.572;13.460;2023-11-18T02:42:28;15.35;;;11.32;;
12869;SDS011;6503;48.572;13.460;2023-11-18T02:45:16;13.60;;;11.10;;
12869;SDS011;6503;48.572;13.460;2023-11-18T02:50:55;17.33;;;11.70;;
12869;SDS011;6503;48.572;13.460;2023-11-18T02:53:28;16.73;;;11.43;;
12869;SDS011;6503;48.572;13.460;2023-11-18T02:56:01;16.17;;;12.77;;
12869;SDS011;6503;48.572;13.460;2023-11-18T02:58:44;16.55;;;12.07;;
12869;SDS011;6503;48.572;13.460;2023-11-18T03:04:15;14.98;;;12.05;;
12869;SDS011;6503;48.572;13.460;2023-11-18T03:12:57;15.07;;;12.38;;
12869;SDS011;6503;48.572;13.460;2023-11-18T03:15:33;14.95;;;11.90;;
12869;SDS011;6503;48.572;13.460;2023-11-18T03:18:07;15.48;;;12.32;;
12869;SDS011;6503;48.572;13.460;2023-11-18T03:20:44;14.18;;;11.60;;
12869;SDS011;6503;48.572;13.460;2023-11-18T03:23:17;14.25;;;11.52;;
12869;SDS011;6503;48.572;13.460;2023-11-18T03:25:50;14.18;;;11.27;;
12869;SDS011;6503;48.572;13.460;2023-11-18T03:28:26;14.23;;;11.77;;
12869;SDS011;6503;48.572;13.460;2023-11-18T03:30:57;15.10;;;11.80;;
12869;SDS011;6503;48.572;13.460;2023-11-18T03:33:24;14.20;;;11.32;;
12869;SDS011;6503;48.572;13.460;2023-11-18T03:35:51;14.60;;;11.48;;
12869;SDS011;6503;48.572;13.460;2023-11-18T03:38:20;13.68;;;10.93;;
12869;SDS011;6503;48.572;13.460;2023-11-18T03:40:48;12.95;;;10.68;;
12869;SDS011;6503;48.572;13.460;2023-11-18T03:43:17;13.82;;;10.45;;
12869;SDS011;6503;48.572;13.460;2023-11-18T03:45:49;12.88;;;10.75;;
12869;SDS011;6503;48.572;13.460;2023-11-18T03:48:21;13.38;;;11.38;;
12869;SDS011;6503;48.572;13.460;2023-11-18T03:50:49;12.85;;;11.07;;
12869;SDS011;6503;48.572;13.460;2023-11-18T03:53:19;14.95;;;11.20;;
12869;SDS011;6503;48.572;13.460;2023-11-18T03:55:47;13.85;;;11.18;;
12869;SDS011;6503;48.572;13.460;2023-11-18T03:58:16;14.23;;;11.73;;
12869;SDS011;6503;48.572;13.460;2023-11-18T04:00:44;13.85;;;11.10;;
12869;SDS011;6503;48.572;13.460;2023-11-18T04:03:11;15.05;;;10.82;;
12869;SDS011;6503;48.572;13.460;2023-11-18T04:05:39;14.05;;;11.70;;
12869;SDS011;6503;48.572;13.460;2023-11-18T04:08:06;13.20;;;10.70;;
12869;SDS011;6503;48.572;13.460;2023-11-18T04:10:33;13.30;;;10.85;;
12869;SDS011;6503;48.572;13.460;2023-11-18T04:13:01;12.98;;;10.65;;
12869;SDS011;6503;48.572;13.460;2023-11-18T04:15:28;12.20;;;9.95;;
12869;SDS011;6503;48.572;13.460;2023-11-18T04:17:55;12.15;;;10.02;;
12869;SDS011;6503;48.572;13.460;2023-11-18T04:20:24;10.63;;;9.52;;
12869;SDS011;6503;48.572;13.460;2023-11-18T04:22:52;10.93;;;9.73;;
12869;SDS011;6503;48.572;13.460;2023-11-18T04:25:20;13.32;;;10.55;;
12869;SDS011;6503;48.572;13.460;2023-11-18T04:27:47;11.32;;;9.38;;
12869;SDS011;6503;48.572;13.460;2023-11-18T04:30:15;13.45;;;9.52;;
12869;SDS011;6503;48.572;13.460;2023-11-18T04:32:43;12.55;;;10.00;;
12869;SDS011;6503;48.572;13.460;2023-11-18T04:35:10;11.05;;;9.85;;
12869;SDS011;6503;48.572;13.460;2023-11-18T04:37:39;12.20;;;9.65;;
12869;SDS011;6503;48.572;13.460;2023-11-18T04:40:08;12.23;;;9.93;;
12869;SDS011;6503;48.572;13.460;2023-11-18T04:42:37;18.17;;;12.23;;
12869;SDS011;6503;48.572;13.460;2023-11-18T04:45:04;12.48;;;9.93;;
12869;SDS011;6503;48.572;13.460;2023-11-18T04:47:32;11.90;;;10.15;;
12869;SDS011;6503;48.572;13.460;2023-11-18T04:49:59;13.23;;;9.77;;
12869;SDS011;6503;48.572;13.460;2023-11-18T04:52:28;12.27;;;10.23;;
12869;SDS011;6503;48.572;13.460;2023-11-18T04:54:59;13.50;;;10.90;;
12869;SDS011;6503;48.572;13.460;2023-11-18T04:57:26;12.70;;;10.02;;
12869;SDS011;6503;48.572;13.460;2023-11-18T04:59:52;14.05;;;10.10;;
12869;SDS011;6503;48.572;13.460;2023-11-18T05:02:20;14.60;;;10.85;;
12869;SDS011;6503;48.572;13.460;2023-11-18T05:04:47;14.77;;;11.10;;
12869;SDS011;6503;48.572;13.460;2023-11-18T05:07:15;13.63;;;10.82;;
12869;SDS011;6503;48.572;13.460;2023-11-18T05:09:43;13.57;;;11.43;;
12869;SDS011;6503;48.572;13.460;2023-11-18T05:12:14;12.40;;;10.43;;
12869;SDS011;6503;48.572;13.460;2023-11-18T05:14:41;14.82;;;9.90;;
12869;SDS011;6503;48.572;13.460;2023-11-18T05:17:18;12.20;;;9.40;;
12869;SDS011;6503;48.572;13.460;2023-11-18T05:19:46;10.95;;;9.52;;
12869;SDS011;6503;48.572;13.460;2023-11-18T05:22:13;14.10;;;10.75;;
12869;SDS011;6503;48.572;13.460;2023-11-18T05:24:40;12.23;;;10.00;;
12869;SDS011;6503;48.572;13.460;2023-11-18T05:27:08;11.15;;;9.63;;
12869;SDS011;6503;48.572;13.460;2023-11-18T05:29:37;13.65;;;10.68;;
12869;SDS011;6503;48.572;13.460;2023-11-18T05:32:06;11.23;;;10.02;;
12869;SDS011;6503;48.572;13.460;2023-11-18T05:34:34;12.48;;;9.98;;
12869;SDS011;6503;48.572;13.460;2023-11-18T05:37:00;13.60;;;10.50;;
12869;SDS011;6503;48.572;13.460;2023-11-18T05:39:28;14.30;;;10.55;;
12869;SDS011;6503;48.572;13.460;2023-11-18T05:41:56;13.57;;;9.95;;
12869;SDS011;6503;48.572;13.460;2023-11-18T05:44:23;14.88;;;11.00;;
12869;SDS011;6503;48.572;13.460;2023-11-18T05:46:57;14.27;;;10.65;;
12869;SDS011;6503;48.572;13.460;2023-11-18T05:49:24;11.87;;;10.40;;
12869;SDS011;6503;48.572;13.460;2023-11-18T05:51:52;14.85;;;10.77;;
12869;SDS011;6503;48.572;13.460;2023-11-18T05:54:19;14.55;;;11.35;;
12869;SDS011;6503;48.572;13.460;2023-11-18T05:56:46;15.27;;;11.35;;
12869;SDS011;6503;48.572;13.460;2023-11-18T05:59:14;13.38;;;11.65;;
12869;SDS011;6503;48.572;13.460;2023-11-18T06:01:47;14.20;;;10.98;;
12869;SDS011;6503;48.572;13.460;2023-11-18T06:04:16;17.90;;;12.02;;
12869;SDS011;6503;48.572;13.460;2023-11-18T06:06:43;14.85;;;11.07;;
12869;SDS011;6503;48.572;13.460;2023-11-18T06:09:12;12.65;;;10.63;;
12869;SDS011;6503;48.572;13.460;2023-11-18T06:11:45;13.35;;;10.27;;
12869;SDS011;6503;48.572;13.460;2023-11-18T06:14:14;14.93;;;11.20;;
12869;SDS011;6503;48.572;13.460;2023-11-18T06:16:43;14.55;;;11.00;;
12869;SDS011;6503;48.572;13.460;2023-11-18T06:19:10;19.88;;;12.55;;
12869;SDS011;6503;48.572;13.460;2023-11-18T06:21:39;12.95;;;10.13;;
12869;SDS011;6503;48.572;13.460;2023-11-18T06:24:06;13.93;;;10.70;;
12869;SDS011;6503;48.572;13.460;2023-11-18T06:26:38;13.55;;;11.20;;
12869;SDS011;6503;48.572;13.460;2023-11-18T06:29:06;14.70;;;11.80;;
12869;SDS011;6503;48.572;13.460;2023-11-18T06:31:34;16.23;;;11.93;;
12869;SDS011;6503;48.572;13.460;2023-11-18T06:34:01;15.60;;;12.27;;
12869;SDS011;6503;48.572;13.460;2023-11-18T06:36:29;17.92;;;12.27;;
12869;SDS011;6503;48.572;13.460;2023-11-18T06:39:35;12.13;;;10.63;;
12869;SDS011;6503;48.572;13.460;2023-11-18T06:42:34;15.30;;;12.38;;
12869;SDS011;6503;48.572;13.460;2023-11-18T06:45:21;13.40;;;11.20;;
12869;SDS011;6503;48.572;13.460;2023-11-18T06:48:08;14.23;;;11.35;;
12869;SDS011;6503;48.572;13.460;2023-11-18T06:53:49;18.98;;;13.57;;
12869;SDS011;6503;48.572;13.460;2023-11-18T06:56:45;15.45;;;11.63;;
12869;SDS011;6503;48.572;13.460;2023-11-18T07:01:09;16.00;;;11.68;;
12869;SDS011;6503;48.572;13.460;2023-11-18T07:02:46;22.33;;;14.45;;
12869;SDS011;6503;48.572;13.460;2023-11-18T07:05:30;17.10;;;13.23;;
12869;SDS011;6503;48.572;13.460;2023-11-18T07:08:10;17.00;;;12.77;;
12869;SDS011;6503;48.572;13.460;2023-11-18T07:11:02;17.77;;;13.35;;
12869;SDS011;6503;48.572;13.460;2023-11-18T07:16:31;16.15;;;13.30;;
12869;SDS011;6503;48.572;13.460;2023-11-18T07:19:11;16.63;;;13.45;;
12869;SDS011;6503;48.572;13.460;2023-11-18T07:21:58;17.48;;;13.52;;
12869;SDS011;6503;48.572;13.460;2023-11-18T07:24:54;17.65;;;13.32;;
12869;SDS011;6503;48.572;13.460;2023-11-18T07:27:47;19.40;;;12.40;;
12869;SDS011;6503;48.572;13.460;2023-11-18T07:30:43;16.52;;;12.65;;
12869;SDS011;6503;48.572;13.460;2023-11-18T07:33:34;18.13;;;13.73;;
12869;SDS011;6503;48.572;13.460;2023-11-18T07:36:22;20.88;;;14.00;;
12869;SDS011;6503;48.572;13.460;2023-11-18T07:39:15;19.40;;;13.32;;
12869;SDS011;6503;48.572;13.460;2023-11-18T07:41:52;17.70;;;13.43;;
12869;SDS011;6503;48.572;13.460;2023-11-18T07:47:34;23.45;;;13.20;;
12869;SDS011;6503;48.572;13.460;2023-11-18T07:56:44;23.02;;;15.50;;
12869;SDS011;6503;48.572;13.460;2023-11-18T07:59:19;19.77;;;14.38;;
12869;SDS011;6503;48.572;13.460;2023-11-18T08:02:01;18.23;;;14.15;;
12869;SDS011;6503;48.572;13.460;2023-11-18T08:04:47;18.88;;;13.27;;
12869;SDS011;6503;48.572;13.460;2023-11-18T08:07:15;17.90;;;13.18;;
12869;SDS011;6503;48.572;13.460;2023-11-18T08:09:42;19.45;;;14.40;;
12869;SDS011;6503;48.572;13.460;2023-11-18T08:12:11;17.83;;;14.27;;
12869;SDS011;6503;48.572;13.460;2023-11-18T08:18:09;20.02;;;13.80;;
12869;SDS011;6503;48.572;13.460;2023-11-18T08:20:52;17.65;;;13.77;;
12869;SDS011;6503;48.572;13.460;2023-11-18T08:26:43;17.27;;;13.10;;
12869;SDS011;6503;48.572;13.460;2023-11-18T08:29:43;17.35;;;13.55;;
12869;SDS011;6503;48.572;13.460;2023-11-18T08:32:35;19.23;;;14.48;;
12869;SDS011;6503;48.572;13.460;2023-11-18T08:35:14;19.33;;;15.50;;
12869;SDS011;6503;48.572;13.460;2023-11-18T08:37:51;18.88;;;15.70;;
12869;SDS011;6503;48.572;13.460;2023-11-18T08:40:36;18.45;;;15.15;;
12869;SDS011;6503;48.572;13.460;2023-11-18T08:43:55;19.50;;;15.00;;
12869;SDS011;6503;48.572;13.460;2023-11-18T08:58:56;21.15;;;15.90;;
12869;SDS011;6503;48.572;13.460;2023-11-18T09:04:07;20.67;;;15.45;;
12869;SDS011;6503;48.572;13.460;2023-11-18T09:06:35;20.30;;;15.88;;
12869;SDS011;6503;48.572;13.460;2023-11-18T09:09:04;17.80;;;14.35;;
12869;SDS011;6503;48.572;13.460;2023-11-18T09:11:36;19.90;;;15.57;;
12869;SDS011;6503;48.572;13.460;2023-11-18T09:16:35;21.30;;;15.52;;
12869;SDS011;6503;48.572;13.460;2023-11-18T09:19:04;18.27;;;14.60;;
12869;SDS011;6503;48.572;13.460;2023-11-18T09:21:33;20.80;;;14.68;;
12869;SDS011;6503;48.572;13.460;2023-11-18T09:26:30;17.77;;;14.20;;
12869;SDS011;6503;48.572;13.460;2023-11-18T09:29:01;19.65;;;14.75;;
12869;SDS011;6503;48.572;13.460;2023-11-18T09:31:29;18.20;;;14.10;;
12869;SDS011;6503;48.572;13.460;2023-11-18T09:34:00;19.23;;;14.15;;
12869;SDS011;6503;48.572;13.460;2023-11-18T09:36:32;16.95;;;13.73;;
12869;SDS011;6503;48.572;13.460;2023-11-18T09:39:01;16.15;;;12.35;;
12869;SDS011;6503;48.572;13.460;2023-11-18T09:41:29;17.23;;;12.02;;
12869;SDS011;6503;48.572;13.460;2023-11-18T09:44:00;13.57;;;11.10;;
12869;SDS011;6503;48.572;13.460;2023-11-18T09:46:28;13.38;;;9.70;;
12869;SDS011;6503;48.572;13.460;2023-11-18T09:49:06;12.35;;;9.80;;
12869;SDS011;6503;48.572;13.460;2023-11-18T09:51:40;12.38;;;9.05;;
12869;SDS011;6503;48.572;13.460;2023-11-18T09:57:13;9.93;;;8.00;;
12869;SDS011;6503;48.572;13.460;2023-11-18T09:59:49;11.80;;;9.45;;
12869;SDS011;6503;48.572;13.460;2023-11-18T10:02:26;13.32;;;10.32;;
12869;SDS011;6503;48.572;13.460;2023-11-18T10:05:19;12.50;;;10.07;;
12869;SDS011;6503;48.572;13.460;2023-11-18T10:08:09;11.52;;;10.32;;
12869;SDS011;6503;48.572;13.460;2023-11-18T10:10:53;13.20;;;9.10;;
12869;SDS011;6503;48.572;13.460;2023-11-18T10:13:43;11.02;;;8.65;;
12869;SDS011;6503;48.572;13.460;2023-11-18T10:16:32;10.13;;;9.02;;
12869;SDS011;6503;48.572;13.460;2023-11-18T10:19:08;15.75;;;11.10;;
12869;SDS011;6503;48.572;13.460;2023-11-18T10:21:56;12.48;;;8.88;;
12869;SDS011;6503;48.572;13.460;2023-11-18T10:24:54;12.55;;;8.38;;
12869;SDS011;6503;48.572;13.460;2023-11-18T10:27:53;10.25;;;8.48;;
12869;SDS011;6503;48.572;13.460;2023-11-18T10:30:44;9.98;;;8.70;;
12869;SDS011;6503;48.572;13.460;2023-11-18T10:36:02;12.55;;;9.02;;
12869;SDS011;6503;48.572;13.460;2023-11-18T10:47:36;10.20;;;7.82;;
12869;SDS011;6503;48.572;13.460;2023-11-18T10:50:24;10.68;;;8.32;;
12869;SDS011;6503;48.572;13.460;2023-11-18T10:53:06;10.48;;;7.78;;
12869;SDS011;6503;48.572;13.460;2023-11-18T10:55:41;9.00;;;7.68;;
12869;SDS011;6503;48.572;13.460;2023-11-18T10:58:18;11.30;;;8.20;;
12869;SDS011;6503;48.572;13.460;2023-11-18T11:00:52;11.25;;;8.00;;
12869;SDS011;6503;48.572;13.460;2023-11-18T11:03:42;10.40;;;7.30;;
12869;SDS011;6503;48.572;13.460;2023-11-18T11:06:48;9.85;;;6.63;;
12869;SDS011;6503;48.572;13.460;2023-11-18T11:09:38;9.18;;;7.68;;
12869;SDS011;6503;48.572;13.460;2023-11-18T11:12:08;9.25;;;7.43;;
12869;SDS011;6503;48.572;13.460;2023-11-18T11:15:12;10.20;;;7.20;;
12869;SDS011;6503;48.572;13.460;2023-11-18T11:17:57;9.68;;;6.55;;
12869;SDS011;6503;48.572;13.460;2023-11-18T11:24:16;8.55;;;6.07;;
12869;SDS011;6503;48.572;13.460;2023-11-18T11:27:41;7.68;;;6.07;;
12869;SDS011;6503;48.572;13.460;2023-11-18T11:30:08;10.63;;;6.78;;
12869;SDS011;6503;48.572;13.460;2023-11-18T11:33:09;10.45;;;6.32;;
12869;SDS011;6503;48.572;13.460;2023-11-18T11:35:43;9.00;;;6.28;;
12869;SDS011;6503;48.572;13.460;2023-11-18T11:38:24;19.70;;;13.15;;
12869;SDS011;6503;48.572;13.460;2023-11-18T11:41:07;7.93;;;6.32;;
12869;SDS011;6503;48.572;13.460;2023-11-18T11:46:44;8.15;;;5.38;;
12869;SDS011;6503;48.572;13.460;2023-11-18T11:53:10;6.82;;;5.15;;
12869;SDS011;6503;48.572;13.460;2023-11-18T11:56:01;7.43;;;5.20;;
12869;SDS011;6503;48.572;13.460;2023-11-18T12:01:55;6.45;;;4.82;;
12869;SDS011;6503;48.572;13.460;2023-11-18T12:04:26;9.32;;;5.53;;
12869;SDS011;6503;48.572;13.460;2023-11-18T12:06:54;5.68;;;4.60;;
12869;SDS011;6503;48.572;13.460;2023-11-18T12:09:22;6.28;;;4.90;;
12869;SDS011;6503;48.572;13.460;2023-11-18T12:11:58;8.45;;;5.15;;
12869;SDS011;6503;48.572;13.460;2023-11-18T12:14:27;7.43;;;5.47;;
12869;SDS011;6503;48.572;13.460;2023-11-18T12:17:15;6.65;;;4.93;;
12869;SDS011;6503;48.572;13.460;2023-11-18T12:20:02;7.50;;;5.25;;
12869;SDS011;6503;48.572;13.460;2023-11-18T12:29:00;6.03;;;3.67;;
12869;SDS011;6503;48.572;13.460;2023-11-18T12:31:46;4.80;;;3.05;;
12869;SDS011;6503;48.572;13.460;2023-11-18T12:40:26;4.57;;;3.38;;
12869;SDS011;6503;48.572;13.460;2023-11-18T12:43:11;5.60;;;3.40;;
12869;SDS011;6503;48.572;13.460;2023-11-18T12:46:03;4.85;;;3.25;;
12869;SDS011;6503;48.572;13.460;2023-11-18T12:48:53;3.97;;;3.10;;
12869;SDS011;6503;48.572;13.460;2023-11-18T12:51:46;4.18;;;2.72;;
12869;SDS011;6503;48.572;13.460;2023-11-18T12:54:20;4.03;;;2.70;;
12869;SDS011;6503;48.572;13.460;2023-11-18T13:00:10;5.18;;;3.50;;
12869;SDS011;6503;48.572;13.460;2023-11-18T13:03:07;3.58;;;3.00;;
12869;SDS011;6503;48.572;13.460;2023-11-18T13:05:52;4.90;;;3.08;;
12869;SDS011;6503;48.572;13.460;2023-11-18T13:08:33;5.68;;;3.38;;
12869;SDS011;6503;48.572;13.460;2023-11-18T13:11:27;5.38;;;3.28;;
12869;SDS011;6503;48.572;13.460;2023-11-18T13:14:15;3.92;;;2.85;;
12869;SDS011;6503;48.572;13.460;2023-11-18T13:29:03;3.25;;;2.17;;
12869;SDS011;6503;48.572;13.460;2023-11-18T13:31:53;6.00;;;2.50;;
12869;SDS011;6503;48.572;13.460;2023-11-18T13:34:46;3.85;;;2.70;;
12869;SDS011;6503;48.572;13.460;2023-11-18T13:40:09;2.63;;;1.90;;
12869;SDS011;6503;48.572;13.460;2023-11-18T13:44:05;2.72;;;2.05;;
12869;SDS011;6503;48.572;13.460;2023-11-18T13:52:03;3.83;;;2.25;;
12869;SDS011;6503;48.572;13.460;2023-11-18T14:00:37;4.85;;;2.60;;
12869;SDS011;6503;48.572;13.460;2023-11-18T14:03:11;3.60;;;2.63;;
12869;SDS011;6503;48.572;13.460;2023-11-18T14:09:11;4.38;;;3.38;;
12869;SDS011;6503;48.572;13.460;2023-11-18T14:11:51;3.90;;;2.70;;
12869;SDS011;6503;48.572;13.460;2023-11-18T14:38:23;6.45;;;4.80;;
12869;SDS011;6503;48.572;13.460;2023-11-18T14:41:05;8.05;;;4.95;;
12869;SDS011;6503;48.572;13.460;2023-11-18T14:44:01;6.45;;;4.45;;
12869;SDS011;6503;48.572;13.460;2023-11-18T14:46:48;8.00;;;4.22;;
12869;SDS011;6503;48.572;13.460;2023-11-18T14:49:25;6.50;;;4.38;;
12869;SDS011;6503;48.572;13.460;2023-11-18T15:16:27;7.80;;;5.80;;
12869;SDS011;6503;48.572;13.460;2023-11-18T15:18:54;8.50;;;5.85;;
12869;SDS011;6503;48.572;13.460;2023-11-18T15:21:21;8.10;;;5.80;;
12869;SDS011;6503;48.572;13.460;2023-11-18T15:23:49;11.18;;;7.28;;
12869;SDS011;6503;48.572;13.460;2023-11-18T15:26:16;11.18;;;7.70;;
12869;SDS011;6503;48.572;13.460;2023-11-18T15:28:45;13.20;;;8.68;;
12869;SDS011;6503;48.572;13.460;2023-11-18T15:48:50;12.85;;;8.68;;
12869;SDS011;6503;48.572;13.460;2023-11-18T15:52:27;14.27;;;9.80;;
12869;SDS011;6503;48.572;13.460;2023-11-18T15:54:40;14.77;;;9.20;;
12869;SDS011;6503;48.572;13.460;2023-11-18T15:57:23;12.30;;;9.32;;
12869;SDS011;6503;48.572;13.460;2023-11-18T16:03:19;14.05;;;9.65;;
12869;SDS011;6503;48.572;13.460;2023-11-18T16:12:17;21.95;;;11.88;;
12869;SDS011;6503;48.572;13.460;2023-11-18T16:14:48;23.05;;;12.27;;
12869;SDS011;6503;48.572;13.460;2023-11-18T16:20:14;12.85;;;10.18;;
12869;SDS011;6503;48.572;13.460;2023-11-18T16:22:51;14.25;;;10.63;;
12869;SDS011;6503;48.572;13.460;2023-11-18T16:37:10;20.25;;;12.10;;
12869;SDS011;6503;48.572;13.460;2023-11-18T16:39:57;19.98;;;13.25;;
12869;SDS011;6503;48.572;13.460;2023-11-18T16:42:38;19.42;;;13.95;;
12869;SDS011;6503;48.572;13.460;2023-11-18T16:45:14;23.02;;;13.73;;
12869;SDS011;6503;48.572;13.460;2023-11-18T16:53:37;18.50;;;13.13;;
12869;SDS011;6503;48.572;13.460;2023-11-18T16:56:35;17.98;;;12.38;;
12869;SDS011;6503;48.572;13.460;2023-11-18T17:02:29;16.75;;;11.52;;
12869;SDS011;6503;48.572;13.460;2023-11-18T17:05:16;17.20;;;11.65;;
12869;SDS011;6503;48.572;13.460;2023-11-18T17:08:06;20.30;;;14.43;;
12869;SDS011;6503;48.572;13.460;2023-11-18T17:10:57;18.13;;;12.90;;
12869;SDS011;6503;48.572;13.460;2023-11-18T17:13:48;17.73;;;11.87;;
12869;SDS011;6503;48.572;13.460;2023-11-18T17:16:24;20.05;;;14.20;;
12869;SDS011;6503;48.572;13.460;2023-11-18T17:19:03;19.13;;;12.77;;
12869;SDS011;6503;48.572;13.460;2023-11-18T17:21:50;18.50;;;14.38;;
12869;SDS011;6503;48.572;13.460;2023-11-18T17:24:40;18.67;;;13.52;;
12869;SDS011;6503;48.572;13.460;2023-11-18T17:27:24;20.17;;;13.60;;
12869;SDS011;6503;48.572;13.460;2023-11-18T17:29:58;20.20;;;14.70;;
12869;SDS011;6503;48.572;13.460;2023-11-18T17:32:48;18.08;;;13.93;;
12869;SDS011;6503;48.572;13.460;2023-11-18T17:44:44;18.00;;;13.38;;
12869;SDS011;6503;48.572;13.460;2023-11-18T17:47:58;19.40;;;13.65;;
12869;SDS011;6503;48.572;13.460;2023-11-18T17:50:51;16.70;;;13.05;;
12869;SDS011;6503;48.572;13.460;2023-11-18T17:56:14;16.63;;;13.27;;
12869;SDS011;6503;48.572;13.460;2023-11-18T18:04:48;16.92;;;12.70;;
12869;SDS011;6503;48.572;13.460;2023-11-18T18:07:29;17.85;;;12.52;;
12869;SDS011;6503;48.572;13.460;2023-11-18T18:15:54;20.33;;;14.38;;
12869;SDS011;6503;48.572;13.460;2023-11-18T18:18:54;19.40;;;13.50;;
12869;SDS011;6503;48.572;13.460;2023-11-18T18:21:43;18.48;;;13.13;;
12869;SDS011;6503;48.572;13.460;2023-11-18T18:24:18;20.38;;;13.27;;
12869;SDS011;6503;48.572;13.460;2023-11-18T18:27:11;18.45;;;12.95;;
12869;SDS011;6503;48.572;13.460;2023-11-18T18:29:59;15.75;;;11.75;;
12869;SDS011;6503;48.572;13.460;2023-11-18T18:35:24;13.32;;;10.85;;
12869;SDS011;6503;48.572;13.460;2023-11-18T18:38:25;13.45;;;10.18;;
12869;SDS011;6503;48.572;13.460;2023-11-18T18:44:16;13.15;;;9.93;;
12869;SDS011;6503;48.572;13.460;2023-11-18T18:47:37;13.40;;;10.55;;
12869;SDS011;6503;48.572;13.460;2023-11-18T18:52:49;13.60;;;10.60;;
12869;SDS011;6503;48.572;13.460;2023-11-18T18:55:46;19.17;;;10.70;;
12869;SDS011;6503;48.572;13.460;2023-11-18T18:58:23;15.32;;;10.40;;
12869;SDS011;6503;48.572;13.460;2023-11-18T19:01:36;13.35;;;9.60;;
12869;SDS011;6503;48.572;13.460;2023-11-18T19:04:30;15.75;;;9.80;;
12869;SDS011;6503;48.572;13.460;2023-11-18T19:07:16;14.50;;;10.20;;
12869;SDS011;6503;48.572;13.460;2023-11-18T19:10:09;13.20;;;10.30;;
12869;SDS011;6503;48.572;13.460;2023-11-18T19:16:22;13.90;;;9.27;;
12869;SDS011;6503;48.572;13.460;2023-11-18T19:19:03;12.25;;;9.27;;
12869;SDS011;6503;48.572;13.460;2023-11-18T19:21:39;13.20;;;10.05;;
12869;SDS011;6503;48.572;13.460;2023-11-18T19:24:21;15.30;;;10.80;;
12869;SDS011;6503;48.572;13.460;2023-11-18T19:27:16;14.27;;;9.93;;
12869;SDS011;6503;48.572;13.460;2023-11-18T19:29:55;14.90;;;9.90;;
12869;SDS011;6503;48.572;13.460;2023-11-18T19:41:22;20.17;;;10.15;;
12869;SDS011;6503;48.572;13.460;2023-11-18T19:47:06;13.15;;;9.98;;
12869;SDS011;6503;48.572;13.460;2023-11-18T19:49:51;14.90;;;9.90;;
12869;SDS011;6503;48.572;13.460;2023-11-18T19:52:34;13.60;;;9.32;;
12869;SDS011;6503;48.572;13.460;2023-11-18T19:55:10;12.20;;;9.07;;
12869;SDS011;6503;48.572;13.460;2023-11-18T20:01:00;12.50;;;9.07;;
12869;SDS011;6503;48.572;13.460;2023-11-18T20:03:50;13.68;;;10.02;;
12869;SDS011;6503;48.572;13.460;2023-11-18T20:06:33;12.23;;;9.68;;
12869;SDS011;6503;48.572;13.460;2023-11-18T20:09:07;13.48;;;10.52;;
12869;SDS011;6503;48.572;13.460;2023-11-18T20:11:59;13.90;;;10.80;;
12869;SDS011;6503;48.572;13.460;2023-11-18T20:14:33;12.45;;;10.25;;
12869;SDS011;6503;48.572;13.460;2023-11-18T20:17:14;12.88;;;10.35;;
12869;SDS011;6503;48.572;13.460;2023-11-18T20:19:49;12.98;;;9.73;;
12869;SDS011;6503;48.572;13.460;2023-11-18T20:22:25;12.57;;;9.25;;
12869;SDS011;6503;48.572;13.460;2023-11-18T20:28:17;11.20;;;9.00;;
12869;SDS011;6503;48.572;13.460;2023-11-18T20:31:07;13.90;;;10.57;;
12869;SDS011;6503;48.572;13.460;2023-11-18T20:33:59;13.18;;;10.27;;
12869;SDS011;6503;48.572;13.460;2023-11-18T20:36:31;14.40;;;10.25;;
12869;SDS011;6503;48.572;13.460;2023-11-18T20:42:05;14.65;;;10.40;;
12869;SDS011;6503;48.572;13.460;2023-11-18T20:44:52;14.18;;;11.15;;
12869;SDS011;6503;48.572;13.460;2023-11-18T20:47:48;15.30;;;11.07;;